Time;durP1;ratioP1;P1;durP2;ratioP2;P2;SDS_P1;SDS_P2;PMS_P1;PMS_P2;Temp;Humidity;BMP_temperature;BMP_pressure;BME280_temperature;BME280_humidity;BME280_pressure;Samples;Min_cycle;Max_cycle;Signal;HPM_P1;HPM_P2
2022/09/12 00:00:10;;;;;;;1.60;1.17;;;;;;;12.57;89.84;95807.63;5009508;28;20489;-69
2022/09/12 00:02:36;;;;;;;2.08;1.40;;;;;;;12.48;90.39;95813.78;5002823;28;20076;-69
2022/09/12 00:05:02;;;;;;;2.45;1.05;;;;;;;12.43;90.43;95810.78;5004363;28;20018;-69
2022/09/12 00:07:27;;;;;;;1.45;1.30;;;;;;;12.36;90.96;95813.19;4998493;28;20022;-69
2022/09/12 00:09:53;;;;;;;0.90;0.90;;;;;;;12.37;90.25;95811.38;5002503;28;20038;-69
2022/09/12 00:12:18;;;;;;;1.40;1.30;;;;;;;12.35;93.41;95819.44;4999803;28;20037;-69
2022/09/12 00:14:43;;;;;;;1.30;1.20;;;;;;;12.34;90.78;95819.63;5007610;28;20029;-69
2022/09/12 00:17:09;;;;;;;1.10;1.00;;;;;;;12.36;90.38;95822.94;5007254;28;20022;-69
2022/09/12 00:19:34;;;;;;;1.10;1.10;;;;;;;12.40;89.88;95825.13;4989092;28;20098;-69
2022/09/12 00:22:01;;;;;;;1.40;1.30;;;;;;;12.41;89.96;95825.94;5001166;28;20095;-69
2022/09/12 00:24:26;;;;;;;1.42;1.33;;;;;;;12.37;90.39;95824.59;5004169;28;20028;-69
2022/09/12 00:26:51;;;;;;;1.15;1.15;;;;;;;12.35;91.06;95821.28;5002378;28;20029;-68
2022/09/12 00:29:20;;;;;;;3.05;1.50;;;;;;;12.29;92.60;95817.41;5002134;28;20041;-69
2022/09/12 00:31:46;;;;;;;2.30;1.70;;;;;;;12.18;92.61;95816.66;5007037;28;20022;-69
2022/09/12 00:34:12;;;;;;;1.42;1.33;;;;;;;12.18;91.53;95821.09;5003656;28;20029;-69
2022/09/12 00:36:38;;;;;;;1.30;1.20;;;;;;;12.19;91.56;95820.13;5000607;28;20014;-69
2022/09/12 00:39:05;;;;;;;1.17;1.17;;;;;;;12.17;92.28;95824.72;5001123;28;20030;-69
2022/09/12 00:41:38;;;;;;;1.42;1.20;;;;;;;12.16;92.58;95825.69;5005447;28;20022;-69
2022/09/12 00:44:09;;;;;;;1.02;1.02;;;;;;;12.15;92.03;95821.41;5006132;28;20026;-69
2022/09/12 00:47:02;;;;;;;2.05;1.40;;;;;;;12.15;91.85;95816.94;5011462;28;20025;-68
2022/09/12 00:50:17;;;;;;;1.27;1.17;;;;;;;12.11;92.94;95818.22;5003900;28;20026;-69
2022/09/12 00:52:49;;;;;;;1.10;1.00;;;;;;;12.01;93.51;95815.63;4994666;28;20038;-69
2022/09/12 00:55:15;;;;;;;3.83;1.23;;;;;;;12.00;92.78;95813.94;4998561;28;20118;-69
2022/09/12 00:57:58;;;;;;;3.75;1.20;;;;;;;12.00;92.76;95808.66;5004927;28;20097;-69
2022/09/12 01:00:26;;;;;;;1.40;1.27;;;;;;;12.00;92.40;95808.66;5000595;28;20018;-69
2022/09/12 01:03:13;;;;;;;4.63;1.40;;;;;;;12.00;92.28;95813.94;5001717;28;20030;-69
2022/09/12 01:05:46;;;;;;;1.50;1.40;;;;;;;11.96;93.81;95809.13;4999298;28;20497;-69
2022/09/12 01:08:12;;;;;;;1.48;1.30;;;;;;;11.90;93.90;95814.00;5005955;28;20068;-70
2022/09/12 01:10:39;;;;;;;1.30;1.30;;;;;;;11.90;93.07;95807.91;5008316;28;20037;-69
2022/09/12 01:13:07;;;;;;;3.22;1.75;;;;;;;11.86;94.13;95804.72;5002759;28;20025;-69
2022/09/12 01:15:35;;;;;;;1.52;1.45;;;;;;;11.85;93.65;95799.63;5003626;28;20026;-69
2022/09/12 01:18:08;;;;;;;3.22;1.33;;;;;;;11.87;94.13;95795.00;4994096;28;20022;-68
2022/09/12 01:20:51;;;;;;;1.70;1.42;;;;;;;11.86;94.93;95801.28;5001284;28;20409;-69
2022/09/12 01:23:35;;;;;;;1.85;1.30;;;;;;;11.77;95.44;95792.44;5007877;28;20498;-69
2022/09/12 01:26:19;;;;;;;1.40;1.30;;;;;;;11.80;93.51;95786.84;4999679;28;20401;-69
2022/09/12 01:29:21;;;;;;;1.67;1.58;;;;;;;11.83;93.28;95791.00;5001536;28;20022;-69
2022/09/12 01:32:02;;;;;;;1.20;1.20;;;;;;;11.82;94.23;95786.69;4998315;28;20077;-69
2022/09/12 01:34:27;;;;;;;2.38;1.27;;;;;;;11.81;93.38;95792.94;5002503;28;20379;-69
2022/09/12 01:37:11;;;;;;;1.40;1.30;;;;;;;11.83;93.51;95785.75;4998465;28;20029;-69
2022/09/12 01:39:39;;;;;;;3.88;1.40;;;;;;;11.80;94.34;95788.66;5002414;28;20594;-68
2022/09/12 01:42:13;;;;;;;2.00;1.80;;;;;;;11.78;93.75;95783.53;4997957;28;20110;-68
2022/09/12 01:44:52;;;;;;;3.60;1.80;;;;;;;11.78;94.34;95782.69;5007814;28;20108;-68
2022/09/12 01:47:30;;;;;;;3.40;1.75;;;;;;;11.69;96.04;95793.16;5007084;28;20033;-68
2022/09/12 01:50:33;;;;;;;2.42;1.35;;;;;;;11.64;96.26;95798.03;4999996;28;20030;-68
2022/09/12 01:53:15;;;;;;;1.40;1.30;;;;;;;11.63;95.52;95785.84;4973943;28;20107;-69
2022/09/12 01:55:55;;;;;;;1.73;1.20;;;;;;;11.68;94.33;95785.38;4996810;28;20116;-69
2022/09/12 01:58:28;;;;;;;2.10;1.50;;;;;;;11.64;95.82;95782.22;5002784;28;20029;-69
2022/09/12 02:01:15;;;;;;;1.58;1.40;;;;;;;11.65;95.14;95783.03;5007775;28;20025;-69
2022/09/12 02:03:47;;;;;;;2.25;1.90;;;;;;;11.68;94.43;95773.03;5008596;28;20056;-69
2022/09/12 02:06:28;;;;;;;3.13;2.85;;;;;;;11.68;94.59;95777.47;5004333;28;20100;-69
2022/09/12 02:08:59;;;;;;;2.20;1.52;;;;;;;11.67;95.25;95778.44;4998034;28;20062;-69
2022/09/12 02:11:25;;;;;;;3.15;1.60;;;;;;;11.63;94.88;95783.19;4997419;28;20030;-69
2022/09/12 02:13:59;;;;;;;1.75;1.50;;;;;;;11.56;96.62;95775.03;5008208;28;20034;-69
2022/09/12 02:16:39;;;;;;;2.45;1.70;;;;;;;11.55;96.40;95776.00;5006259;28;20041;-69
2022/09/12 02:19:16;;;;;;;1.77;1.67;;;;;;;11.56;96.09;95774.19;5001228;28;20023;-69
2022/09/12 02:21:48;;;;;;;1.83;1.73;;;;;;;11.59;95.50;95784.44;4993469;28;20026;-69
2022/09/12 02:24:16;;;;;;;3.35;2.58;;;;;;;11.58;95.18;95783.63;5008352;28;20028;-69
2022/09/12 02:26:54;;;;;;;1.85;1.60;;;;;;;11.60;95.22;95783.47;5002047;28;20460;-69
2022/09/12 02:29:19;;;;;;;1.50;1.40;;;;;;;11.60;95.04;95779.03;5006250;28;20181;-69
2022/09/12 02:31:58;;;;;;;35.58;26.17;;;;;;;11.59;95.46;95777.38;5000540;28;20577;-68
2022/09/12 02:34:40;;;;;;;8.95;7.60;;;;;;;11.54;96.45;95779.63;5002553;28;20022;-68
2022/09/12 02:37:38;;;;;;;5.75;3.42;;;;;;;11.42;97.28;95767.59;5001785;28;20697;-69
2022/09/12 02:40:05;;;;;;;2.42;2.28;;;;;;;11.42;96.85;95772.88;5008514;28;20108;-69
2022/09/12 02:42:31;;;;;;;1.50;1.50;;;;;;;11.39;97.24;95771.38;4995409;28;20072;-69
2022/09/12 02:44:56;;;;;;;1.65;1.55;;;;;;;11.35;97.25;95775.25;5009475;28;20451;-68
2022/09/12 02:47:29;;;;;;;1.63;1.50;;;;;;;11.37;96.79;95772.47;5003317;28;20045;-69
2022/09/12 02:49:55;;;;;;;1.52;1.42;;;;;;;11.38;96.72;95764.41;5000719;28;20564;-69
2022/09/12 02:52:21;;;;;;;4.88;1.50;;;;;;;11.34;97.49;95770.94;5009805;28;20038;-69
2022/09/12 02:54:47;;;;;;;1.48;1.17;;;;;;;11.28;97.56;95775.03;5002900;28;20393;-70
2022/09/12 02:57:18;;;;;;;1.10;1.10;;;;;;;11.31;97.10;95776.53;4997219;28;20041;-70
2022/09/12 02:59:44;;;;;;;1.77;1.42;;;;;;;11.36;96.49;95781.38;4996781;28;20042;-69
2022/09/12 03:02:25;;;;;;;4.80;1.63;;;;;;;11.33;97.12;95774.56;5007360;28;20052;-69
2022/09/12 03:05:25;;;;;;;1.48;1.38;;;;;;;11.28;97.63;95766.28;5010372;28;20507;-70
2022/09/12 03:08:37;;;;;;;1.20;1.20;;;;;;;11.27;97.99;95765.47;5004236;28;20046;-70
2022/09/12 03:11:05;;;;;;;1.85;1.33;;;;;;;11.26;98.38;95773.50;4969037;28;20038;-69
2022/09/12 03:13:52;;;;;;;1.58;1.33;;;;;;;11.16;98.72;95776.16;4960565;28;20410;-69
2022/09/12 03:16:26;;;;;;;1.67;1.23;;;;;;;11.13;98.98;95766.72;4986489;28;20034;-69
2022/09/12 03:19:18;;;;;;;2.00;1.40;;;;;;;11.07;99.42;95772.56;4976184;28;20026;-69
2022/09/12 03:22:02;;;;;;;1.52;1.40;;;;;;;11.11;100.00;95779.22;5008292;28;20033;-69
2022/09/12 03:24:52;;;;;;;3.25;1.50;;;;;;;11.15;98.82;95777.94;4993269;28;20056;-69
2022/09/12 03:27:25;;;;;;;1.67;1.58;;;;;;;11.13;99.58;95777.25;5005063;28;20093;-69
2022/09/12 03:29:52;;;;;;;1.55;1.33;;;;;;;11.10;99.88;95777.56;5008573;28;20033;-69
2022/09/12 03:32:17;;;;;;;3.05;1.20;;;;;;;11.06;99.77;95770.91;5010493;28;20029;-69
2022/09/12 03:34:43;;;;;;;1.40;1.30;;;;;;;11.04;100.00;95768.41;5021084;28;20048;-69
2022/09/12 03:37:08;;;;;;;1.23;1.23;;;;;;;11.05;99.20;95777.16;5005983;28;20029;-69
2022/09/12 03:39:33;;;;;;;3.35;1.20;;;;;;;11.08;98.76;95768.16;5010711;28;20152;-69
2022/09/12 03:41:59;;;;;;;1.40;1.30;;;;;;;11.04;99.39;95763.13;5010433;28;20402;-69
2022/09/12 03:44:24;;;;;;;2.70;1.48;;;;;;;11.04;99.91;95762.31;5005171;28;20032;-69
2022/09/12 03:46:50;;;;;;;1.60;1.50;;;;;;;11.02;99.21;95777.44;5010514;28;20018;-69
2022/09/12 03:49:16;;;;;;;1.42;1.33;;;;;;;11.01;99.13;95760.78;5011234;28;20034;-68
2022/09/12 03:51:42;;;;;;;4.50;4.07;;;;;;;10.98;99.59;95758.44;5012167;28;20025;-69
2022/09/12 03:54:07;;;;;;;1.88;1.73;;;;;;;10.98;99.41;95770.81;5009363;28;20022;-69
2022/09/12 03:56:34;;;;;;;5.07;1.42;;;;;;;11.08;98.80;95761.06;5010668;28;20018;-69
2022/09/12 03:58:59;;;;;;;1.30;1.30;;;;;;;11.09;98.93;95760.09;5019610;28;20071;-69
2022/09/12 04:01:24;;;;;;;1.48;1.33;;;;;;;11.07;100.00;95759.41;5023890;28;20488;-69
2022/09/12 04:03:51;;;;;;;1.50;1.38;;;;;;;11.08;99.38;95763.69;5014900;28;20033;-69
2022/09/12 04:06:19;;;;;;;1.38;1.38;;;;;;;11.01;100.00;95763.44;5009102;28;20033;-69
2022/09/12 04:08:50;;;;;;;1.38;1.25;;;;;;;11.02;100.00;95766.91;5009473;28;20049;-69
2022/09/12 04:11:16;;;;;;;1.50;1.40;;;;;;;10.97;100.00;95761.25;5009063;28;20028;-69
2022/09/12 04:13:43;;;;;;;2.00;1.23;;;;;;;10.94;100.00;95758.88;5009249;28;20125;-69
2022/09/12 04:16:10;;;;;;;2.65;2.45;;;;;;;10.95;100.00;95750.84;5010003;28;20030;-69
2022/09/12 04:18:36;;;;;;;3.10;2.80;;;;;;;10.95;100.00;95750.84;5025192;28;20033;-69
2022/09/12 04:21:05;;;;;;;3.20;2.85;;;;;;;10.92;100.00;95745.84;5017841;28;20095;-69
2022/09/12 04:23:31;;;;;;;2.55;2.35;;;;;;;10.87;100.00;95742.84;5025803;28;20030;-69
2022/09/12 04:25:59;;;;;;;3.17;1.80;;;;;;;10.81;100.00;95746.00;5023595;28;20080;-68
2022/09/12 04:28:27;;;;;;;1.88;1.58;;;;;;;10.82;100.00;95743.25;5013516;28;20036;-69
2022/09/12 04:30:53;;;;;;;1.40;1.30;;;;;;;10.82;100.00;95740.63;5031184;28;20026;-69
2022/09/12 04:33:19;;;;;;;2.13;1.60;;;;;;;10.78;100.00;95749.78;5030174;28;20040;-69
2022/09/12 04:35:44;;;;;;;1.67;1.38;;;;;;;10.79;100.00;95754.06;5030811;28;20026;-69
2022/09/12 04:38:10;;;;;;;3.72;1.50;;;;;;;10.87;99.63;95748.91;5029762;28;20120;-69
2022/09/12 04:40:36;;;;;;;1.75;1.50;;;;;;;10.90;99.56;95750.44;5027619;28;20079;-70
2022/09/12 04:43:02;;;;;;;1.38;1.33;;;;;;;10.95;99.82;95757.94;5017393;28;20116;-68
2022/09/12 04:45:27;;;;;;;3.08;1.35;;;;;;;10.97;99.47;95758.63;5019127;28;20104;-69
2022/09/12 04:47:53;;;;;;;4.05;1.58;;;;;;;10.98;99.76;95763.72;5017082;28;20092;-68
2022/09/12 04:50:18;;;;;;;3.97;2.00;;;;;;;10.94;100.00;95762.34;5022063;28;20033;-56
2022/09/12 04:52:51;;;;;;;3.72;2.38;;;;;;;10.91;100.00;95767.91;5017491;28;20026;-57
2022/09/12 04:55:17;;;;;;;2.42;2.22;;;;;;;10.87;100.00;95771.81;5011636;28;20034;-57
2022/09/12 04:57:42;;;;;;;1.95;1.67;;;;;;;10.81;100.00;95769.72;5012145;28;20037;-57
2022/09/12 05:00:13;;;;;;;2.05;1.45;;;;;;;10.79;100.00;95776.94;5012005;28;20577;-57
2022/09/12 05:02:39;;;;;;;2.42;1.50;;;;;;;10.82;100.00;95777.47;5012400;28;20030;-57
2022/09/12 05:05:04;;;;;;;2.17;1.73;;;;;;;10.82;100.00;95780.13;5011662;28;20038;-57
2022/09/12 05:07:31;;;;;;;1.58;1.48;;;;;;;10.79;100.00;95777.78;5012214;28;20489;-57
2022/09/12 05:09:57;;;;;;;2.97;1.60;;;;;;;10.74;100.00;95782.63;5011514;28;20052;-58
2022/09/12 05:12:22;;;;;;;2.05;1.67;;;;;;;10.72;100.00;95776.66;5011962;28;20025;-57
2022/09/12 05:14:48;;;;;;;6.28;1.67;;;;;;;10.73;100.00;95778.34;5011857;28;20505;-57
2022/09/12 05:17:13;;;;;;;1.50;1.45;;;;;;;10.71;100.00;95778.47;5012188;28;20109;-57
2022/09/12 05:19:38;;;;;;;3.50;1.75;;;;;;;10.66;100.00;95778.06;5011600;28;20049;-57
2022/09/12 05:22:05;;;;;;;2.65;1.55;;;;;;;10.63;100.00;95777.50;5011800;28;20041;-57
2022/09/12 05:24:31;;;;;;;3.75;1.60;;;;;;;10.59;100.00;95772.53;5011743;28;20386;-56
2022/09/12 05:26:57;;;;;;;1.65;1.55;;;;;;;10.62;100.00;95778.47;5010428;28;20036;-57
2022/09/12 05:29:23;;;;;;;2.05;1.80;;;;;;;10.63;100.00;95773.09;5012455;28;20409;-57
2022/09/12 05:31:50;;;;;;;1.25;1.25;;;;;;;10.63;100.00;95774.88;5010409;28;20092;-53
2022/09/12 05:34:16;;;;;;;4.75;1.50;;;;;;;10.66;99.76;95782.50;5015784;28;20025;-56
2022/09/12 05:36:42;;;;;;;3.78;1.80;;;;;;;10.71;98.99;95781.09;5015910;28;20029;-57
2022/09/12 05:39:07;;;;;;;4.32;2.30;;;;;;;10.79;98.29;95788.31;5015518;28;20104;-56
2022/09/12 05:41:33;;;;;;;3.45;2.70;;;;;;;10.82;97.94;95784.53;5012108;28;20033;-57
2022/09/12 05:44:01;;;;;;;2.88;2.47;;;;;;;10.82;97.68;95785.38;5011496;28;20040;-56
2022/09/12 05:46:34;;;;;;;2.55;2.35;;;;;;;10.81;98.41;95786.34;5024827;28;20048;-55
2022/09/12 05:49:05;;;;;;;3.35;2.50;;;;;;;10.78;99.67;95791.91;5030145;28;20029;-54
2022/09/12 05:51:33;;;;;;;2.85;1.90;;;;;;;10.75;99.49;95785.13;5029767;28;20058;-57
2022/09/12 05:54:02;;;;;;;1.80;1.70;;;;;;;10.72;99.86;95790.66;5019881;28;20076;-54
2022/09/12 05:56:29;;;;;;;4.53;1.75;;;;;;;10.78;99.46;95798.97;5023320;28;20026;-56
2022/09/12 05:58:56;;;;;;;2.50;1.85;;;;;;;10.75;99.40;95797.47;5004441;28;20018;-57
2022/09/12 06:01:23;;;;;;;1.75;1.63;;;;;;;10.77;99.30;95794.66;5015162;28;20018;-57
2022/09/12 06:03:53;;;;;;;2.33;2.00;;;;;;;10.82;99.16;95797.72;5026175;28;20036;-57
2022/09/12 06:06:22;;;;;;;2.42;2.22;;;;;;;10.84;98.37;95796.59;5025210;28;20029;-58
2022/09/12 06:08:50;;;;;;;5.65;2.13;;;;;;;10.89;99.12;95796.19;5016676;28;20096;-57
2022/09/12 06:11:19;;;;;;;6.78;1.90;;;;;;;10.87;98.94;95801.59;5007179;28;20468;-57
2022/09/12 06:13:45;;;;;;;4.07;1.85;;;;;;;10.93;99.79;95809.88;5013713;28;20022;-58
2022/09/12 06:16:16;;;;;;;1.95;1.80;;;;;;;10.97;99.73;95806.03;5012140;28;20033;-57
2022/09/12 06:18:50;;;;;;;1.80;1.70;;;;;;;10.98;99.53;95802.41;5016202;28;20084;-57
2022/09/12 06:21:16;;;;;;;3.53;1.67;;;;;;;10.98;100.00;95799.78;5020298;28;20022;-57
2022/09/12 06:23:44;;;;;;;6.97;1.92;;;;;;;11.02;100.00;95801.16;5020009;28;20101;-59
2022/09/12 06:26:10;;;;;;;1.83;1.63;;;;;;;11.04;100.00;95797.38;5019676;28;20029;-59
2022/09/12 06:28:38;;;;;;;1.70;1.60;;;;;;;11.03;100.00;95801.00;5011624;28;20508;-60
2022/09/12 06:31:10;;;;;;;1.70;1.60;;;;;;;11.03;99.66;95800.19;5019691;28;20030;-59
2022/09/12 06:33:37;;;;;;;1.90;1.77;;;;;;;11.04;99.34;95799.22;5020638;28;20026;-58
2022/09/12 06:36:07;;;;;;;2.70;1.90;;;;;;;11.03;99.82;95797.56;5023619;28;20029;-59
2022/09/12 06:38:33;;;;;;;4.40;1.90;;;;;;;11.00;100.00;95796.03;5021520;28;20021;-59
2022/09/12 06:40:59;;;;;;;2.20;2.00;;;;;;;10.96;100.00;95802.56;5021765;28;20508;-59
2022/09/12 06:43:25;;;;;;;3.28;1.73;;;;;;;10.99;100.00;95801.44;5021446;28;20488;-59
2022/09/12 06:45:51;;;;;;;4.35;1.60;;;;;;;11.02;100.00;95795.88;5022344;28;20036;-59
2022/09/12 06:48:16;;;;;;;2.05;1.95;;;;;;;11.05;100.00;95798.25;5021775;28;20403;-59
2022/09/12 06:50:42;;;;;;;4.03;1.63;;;;;;;11.06;100.00;95796.44;5017096;28;20057;-59
2022/09/12 06:53:08;;;;;;;3.35;1.75;;;;;;;11.05;100.00;95792.97;5016485;28;20014;-59
2022/09/12 06:55:33;;;;;;;3.85;1.60;;;;;;;11.18;100.00;95782.97;5019288;28;20029;-59
2022/09/12 06:57:59;;;;;;;3.25;1.70;;;;;;;11.63;99.11;95788.47;5029011;28;20053;-59
2022/09/12 07:00:24;;;;;;;4.90;1.67;;;;;;;12.17;97.02;95782.50;5028038;28;20052;-59
2022/09/12 07:02:55;;;;;;;2.28;1.55;;;;;;;12.61;96.89;95777.28;5029541;28;20433;-59
2022/09/12 07:05:21;;;;;;;4.22;1.70;;;;;;;13.09;95.20;95782.25;5030248;28;20041;-59
2022/09/12 07:07:47;;;;;;;6.07;2.38;;;;;;;13.54;91.62;95775.09;5013229;28;20030;-60
2022/09/12 07:10:12;;;;;;;3.22;1.60;;;;;;;14.06;89.04;95778.56;5010544;28;20030;-59
2022/09/12 07:12:37;;;;;;;2.38;1.40;;;;;;;14.65;85.45;95784.78;5010214;28;20030;-60
2022/09/12 07:15:03;;;;;;;5.75;1.45;;;;;;;15.20;82.52;95779.81;5006573;28;20432;-59
2022/09/12 07:17:28;;;;;;;1.73;1.45;;;;;;;15.66;78.38;95769.41;5002602;28;20033;-60
2022/09/12 07:19:54;;;;;;;1.13;1.10;;;;;;;16.10;76.29;95767.25;5005942;28;20116;-60
2022/09/12 07:22:19;;;;;;;2.28;1.10;;;;;;;16.44;75.02;95771.31;5005796;28;20033;-59
2022/09/12 07:24:45;;;;;;;2.35;1.20;;;;;;;16.82;73.05;95770.56;5001596;28;20666;-60
2022/09/12 07:27:10;;;;;;;2.78;1.00;;;;;;;17.10;69.48;95760.19;5002594;28;20072;-60
2022/09/12 07:29:36;;;;;;;1.30;1.00;;;;;;;17.19;70.21;95763.59;4997846;28;20545;-60
2022/09/12 07:32:02;;;;;;;0.77;0.77;;;;;;;17.32;67.30;95765.63;4997969;28;20040;-60
2022/09/12 07:34:27;;;;;;;3.65;1.10;;;;;;;17.28;66.47;95772.31;5009119;28;20121;-60
2022/09/12 07:36:52;;;;;;;2.10;0.70;;;;;;;16.91;69.35;95764.16;5005949;28;20022;-60
2022/09/12 07:39:18;;;;;;;0.80;0.80;;;;;;;16.84;70.99;95774.69;5008257;28;20069;-60
2022/09/12 07:41:44;;;;;;;1.15;0.90;;;;;;;16.52;71.50;95773.94;5007074;28;20026;-60
2022/09/12 07:44:09;;;;;;;0.77;0.77;;;;;;;16.36;70.87;95771.41;5008706;28;20504;-59
2022/09/12 07:46:35;;;;;;;4.63;1.25;;;;;;;16.25;72.12;95781.44;5009722;28;20040;-59
2022/09/12 07:49:01;;;;;;;1.23;0.82;;;;;;;16.29;70.85;95779.22;5009578;28;20026;-60
2022/09/12 07:51:28;;;;;;;1.27;0.90;;;;;;;16.31;70.79;95780.72;5013184;28;20039;-60
2022/09/12 07:53:55;;;;;;;4.82;1.10;;;;;;;16.58;69.75;95785.72;5008769;28;20033;-60
2022/09/12 07:56:21;;;;;;;0.82;0.82;;;;;;;16.78;68.03;95786.03;5011953;28;20041;-60
2022/09/12 07:58:47;;;;;;;3.03;0.88;;;;;;;16.92;67.67;95786.28;5008232;28;20400;-60
2022/09/12 08:01:19;;;;;;;1.40;0.80;;;;;;;16.92;65.59;95788.94;5011910;28;20034;-59
2022/09/12 08:03:46;;;;;;;1.00;0.95;;;;;;;16.76;64.87;95796.03;5012522;28;20469;-60
2022/09/12 08:06:20;;;;;;;0.65;0.65;;;;;;;16.76;62.32;95796.03;5011906;28;20386;-60
2022/09/12 08:08:46;;;;;;;1.17;0.80;;;;;;;16.81;62.99;95793.66;5010366;28;20421;-60
2022/09/12 08:11:14;;;;;;;2.38;0.70;;;;;;;16.88;62.65;95791.91;5019760;28;20586;-60
2022/09/12 08:13:41;;;;;;;0.60;0.60;;;;;;;16.98;60.36;95794.38;5019038;28;20036;-60
2022/09/12 08:16:11;;;;;;;1.42;0.80;;;;;;;17.02;59.03;95786.88;5023931;28;20449;-60
2022/09/12 08:18:37;;;;;;;1.73;0.60;;;;;;;17.05;59.63;95783.84;5010951;28;20048;-60
2022/09/12 08:21:05;;;;;;;0.73;0.73;;;;;;;17.03;59.06;95776.06;5023248;28;20492;-60
2022/09/12 08:23:32;;;;;;;0.70;0.70;;;;;;;17.22;59.15;95781.03;5018384;28;20033;-60
2022/09/12 08:26:00;;;;;;;0.75;0.75;;;;;;;17.46;56.86;95785.25;5018598;28;20033;-60
2022/09/12 08:28:26;;;;;;;0.60;0.60;;;;;;;17.83;57.32;95782.69;5004197;28;20462;-59
2022/09/12 08:30:53;;;;;;;0.70;0.70;;;;;;;18.11;53.34;95790.03;5014274;28;20662;-59
2022/09/12 08:33:18;;;;;;;1.00;0.90;;;;;;;18.45;51.26;95793.88;5000912;28;20030;-60
2022/09/12 08:35:44;;;;;;;5.40;1.05;;;;;;;18.77;53.00;95789.06;5011609;28;20025;-60
2022/09/12 08:38:09;;;;;;;3.15;1.20;;;;;;;18.74;53.80;95781.47;5006464;28;20408;-60
2022/09/12 08:40:56;;;;;;;3.00;2.10;;;;;;;18.47;53.44;95791.88;5017269;28;20025;-60
2022/09/12 08:43:40;;;;;;;2.15;1.10;;;;;;;18.34;54.40;95787.19;5019357;28;20108;-59
2022/09/12 08:46:42;;;;;;;3.42;0.93;;;;;;;18.20;56.91;95782.75;5011657;28;20041;-60
2022/09/12 08:49:12;;;;;;;0.90;0.90;;;;;;;18.44;58.55;95785.06;4985477;28;20045;-60
2022/09/12 08:51:38;;;;;;;1.02;0.90;;;;;;;18.85;58.55;95788.13;5009482;28;20069;-60
2022/09/12 08:54:11;;;;;;;2.58;1.70;;;;;;;19.11;56.36;95782.19;5009839;28;20053;-60
2022/09/12 08:56:37;;;;;;;3.30;2.15;;;;;;;19.55;54.94;95782.06;5003029;28;20076;-60
2022/09/12 08:59:03;;;;;;;5.78;1.50;;;;;;;19.96;52.93;95778.63;5010706;28;20038;-60
2022/09/12 09:01:37;;;;;;;1.98;1.60;;;;;;;20.03;51.83;95778.66;5011965;28;20022;-60
2022/09/12 09:04:21;;;;;;;1.60;1.50;;;;;;;20.01;50.80;95778.88;5002998;28;20044;-60
2022/09/12 09:07:27;;;;;;;1.17;1.08;;;;;;;19.85;51.23;95779.19;5010434;28;20037;-60
2022/09/12 09:10:02;;;;;;;;;;;;;;;19.55;53.16;95777.56;5012837;28;20077;-60
2022/09/12 09:13:01;;;;;;;2.70;0.87;;;;;;;19.58;54.83;95782.53;4995587;28;20375;-60
2022/09/12 09:15:35;;;;;;;0.77;0.77;;;;;;;19.68;53.67;95778.69;5010945;28;20795;-60
2022/09/12 09:18:15;;;;;;;0.70;0.68;;;;;;;19.87;52.65;95774.44;5009935;28;20033;-60
2022/09/12 09:20:51;;;;;;;0.57;0.57;;;;;;;20.10;51.18;95784.03;5009853;28;20025;-60
2022/09/12 09:23:29;;;;;;;0.88;0.88;;;;;;;19.90;49.13;95772.22;5011247;28;20054;-60
2022/09/12 09:25:54;;;;;;;1.60;0.85;;;;;;;19.89;51.08;95767.91;5011071;28;20507;-58
2022/09/12 09:28:28;;;;;;;0.70;0.70;;;;;;;19.77;50.99;95758.78;5011209;28;20021;-56
2022/09/12 09:30:54;;;;;;;0.80;0.80;;;;;;;19.73;50.96;95755.69;5011799;28;20025;-58
2022/09/12 09:33:25;;;;;;;0.88;0.68;;;;;;;19.96;51.04;95751.91;5011704;28;20026;-58
2022/09/12 09:35:58;;;;;;;0.75;0.75;;;;;;;20.16;49.36;95761.84;4999549;28;20034;-58
2022/09/12 09:38:36;;;;;;;0.80;0.80;;;;;;;20.14;45.77;95755.88;5013350;28;20059;-56
2022/09/12 09:41:14;;;;;;;0.80;0.80;;;;;;;20.15;48.41;95754.84;5017196;28;20045;-56
2022/09/12 09:43:39;;;;;;;0.50;0.50;;;;;;;19.99;47.66;95762.19;5022157;28;20095;-55
2022/09/12 09:46:06;;;;;;;1.00;0.98;;;;;;;20.16;48.90;95757.34;5016717;28;20034;-58
2022/09/12 09:48:34;;;;;;;0.73;0.60;;;;;;;20.20;48.00;95752.41;5013186;28;20027;-58
2022/09/12 09:51:02;;;;;;;1.23;0.60;;;;;;;20.33;47.45;95751.59;5001075;28;20128;-57
2022/09/12 09:53:51;;;;;;;0.82;0.82;;;;;;;20.27;48.75;95744.41;5005552;28;20029;-58
2022/09/12 09:56:39;;;;;;;0.77;0.77;;;;;;;20.18;48.71;95743.75;5002972;28;20116;-58
2022/09/12 09:59:14;;;;;;;1.13;0.80;;;;;;;20.24;49.38;95742.97;5011027;28;20060;-55
2022/09/12 10:01:54;;;;;;;0.60;0.60;;;;;;;20.44;49.01;95737.66;5013021;28;20109;-59
2022/09/12 10:04:23;;;;;;;1.08;0.60;;;;;;;20.57;48.63;95739.53;5008579;28;20029;-58
2022/09/12 10:06:53;;;;;;;0.75;0.75;;;;;;;20.81;47.83;95731.97;5003470;28;20019;-58
2022/09/12 10:09:23;;;;;;;0.73;0.70;;;;;;;20.91;46.83;95728.06;5007254;28;20092;-59
2022/09/12 10:11:49;;;;;;;0.73;0.68;;;;;;;21.04;48.10;95725.38;4991177;28;20021;-58
2022/09/12 10:14:37;;;;;;;0.70;0.70;;;;;;;21.25;46.51;95726.16;5003324;28;20031;-58
2022/09/12 10:17:27;;;;;;;2.53;0.80;;;;;;;21.50;46.24;95717.44;5008871;28;20080;-58
2022/09/12 10:19:52;;;;;;;0.85;0.85;;;;;;;21.88;47.25;95722.09;5006548;28;20033;-57
2022/09/12 10:22:22;;;;;;;0.75;0.70;;;;;;;22.42;43.43;95719.97;5007869;28;20041;-58
2022/09/12 10:24:57;;;;;;;0.57;0.50;;;;;;;22.49;42.70;95717.28;5004952;28;20034;-58
2022/09/12 10:27:31;;;;;;;0.70;0.70;;;;;;;22.32;41.71;95714.22;5010503;28;20026;-58
2022/09/12 10:30:06;;;;;;;0.65;0.65;;;;;;;22.15;42.79;95708.56;5008549;28;20026;-58
2022/09/12 10:32:41;;;;;;;1.00;0.70;;;;;;;22.17;42.21;95711.84;5005571;28;20018;-56
2022/09/12 10:35:22;;;;;;;0.50;0.50;;;;;;;22.59;38.68;95709.56;5014104;28;20565;-58
2022/09/12 10:38:03;;;;;;;1.67;0.55;;;;;;;22.58;38.77;95712.47;5000940;28;20027;-58
2022/09/12 10:40:37;;;;;;;0.57;0.50;;;;;;;22.66;40.06;95703.31;5000241;28;20034;-57
2022/09/12 10:43:16;;;;;;;2.05;0.70;;;;;;;22.72;39.94;95699.78;5007341;28;20038;-58
2022/09/12 10:45:41;;;;;;;0.68;0.68;;;;;;;22.89;39.68;95698.19;5006459;28;20033;-59
2022/09/12 10:48:30;;;;;;;0.55;0.55;;;;;;;23.12;38.14;95696.75;5011229;28;20034;-58
2022/09/12 10:51:00;;;;;;;0.57;0.57;;;;;;;23.24;41.52;95682.56;5001177;28;20501;-59
2022/09/12 10:53:28;;;;;;;0.73;0.73;;;;;;;23.56;40.95;95687.84;5006559;28;20426;-59
2022/09/12 10:56:00;;;;;;;0.82;0.82;;;;;;;23.87;39.02;95677.97;5003582;28;20038;-59
2022/09/12 10:58:31;;;;;;;0.82;0.82;;;;;;;24.45;37.94;95675.75;5004075;28;20022;-58
2022/09/12 11:01:11;;;;;;;1.50;0.90;;;;;;;24.43;41.42;95672.47;5007884;28;20029;-58
2022/09/12 11:04:04;;;;;;;0.93;0.63;;;;;;;24.84;39.14;95668.09;5006496;28;20493;-58
2022/09/12 11:06:47;;;;;;;0.70;0.70;;;;;;;25.25;37.09;95672.78;5011793;28;20056;-58
2022/09/12 11:09:26;;;;;;;0.50;0.50;;;;;;;25.38;36.19;95671.69;5008418;28;20051;-57
2022/09/12 11:12:10;;;;;;;0.70;0.70;;;;;;;25.49;37.19;95672.75;5007477;28;20156;-59
2022/09/12 11:14:56;;;;;;;1.52;0.82;;;;;;;25.86;37.87;95675.97;5013216;28;20038;-59
2022/09/12 11:17:55;;;;;;;1.52;0.65;;;;;;;26.25;37.27;95671.84;5003083;28;20021;-59
2022/09/12 11:20:48;;;;;;;0.60;0.60;;;;;;;26.70;35.21;95662.91;5002867;28;20106;-58
2022/09/12 11:23:50;;;;;;;0.60;0.55;;;;;;;27.16;34.02;95670.91;5005128;28;20041;-59
2022/09/12 11:26:49;;;;;;;2.17;0.60;;;;;;;27.32;33.27;95665.75;5005676;28;20042;-59
2022/09/12 11:29:44;;;;;;;0.90;0.70;;;;;;;27.45;33.47;95661.84;5013866;28;20076;-58
2022/09/12 11:32:37;;;;;;;2.75;0.73;;;;;;;27.83;34.76;95662.06;5011355;28;20040;-59
2022/09/12 11:35:18;;;;;;;1.63;0.70;;;;;;;28.01;31.88;95661.75;5009340;28;20048;-57
2022/09/12 11:38:06;;;;;;;2.28;0.68;;;;;;;27.67;31.79;95659.16;5009388;28;20026;-58
2022/09/12 11:40:43;;;;;;;1.80;0.70;;;;;;;27.15;32.24;95660.34;5004988;28;20048;-59
2022/09/12 11:43:30;;;;;;;0.55;0.55;;;;;;;27.20;32.01;95663.16;5003688;28;20041;-58
2022/09/12 11:46:05;;;;;;;0.52;0.52;;;;;;;27.29;31.36;95652.69;5004148;28;20397;-58
2022/09/12 11:48:45;;;;;;;2.05;0.60;;;;;;;26.79;32.52;95663.31;5005596;28;20025;-58
2022/09/12 11:51:20;;;;;;;2.90;0.57;;;;;;;27.67;30.18;95658.38;5000679;28;20030;-58
2022/09/12 11:53:58;;;;;;;0.65;0.65;;;;;;;26.98;32.44;95657.69;5002706;28;20670;-58